KSZL

Whiteman AFB Airport

Knob Noster, Missouri, USA
METAR KSZL 201231Z AUTO 22012KT 10SM OVC015 07/05 A2987 RMK AO2 SLP121 $
Observed Flight Rules
Jan-20 @ 12:31 UTC (39 minutes ago) Marginal Visual Flight Rules
Wind Visibility Clouds
220° at 12 knots 10 miles
  • Overcast at 1,500' AGL
Temperatures Readings
Current 7°C / 45°F
Dewpoint 5°C / 41°F
Humidity 87%
Altimeter 29.87" Hg
Pressure 1012.1 hPa
Elevation 265
METAR KSZL 201231Z AUTO 22012KT 10SM OVC015 07/05 A2987 RMK AO2 SLP121 $
Observed Flight Rules
Jan-20 @ 12:31 UTC
(39 minutes ago)
MVFR
Wind Visibility
220° at 12 knots 10 miles
Clouds
  • Overcast at 1,500' AGL
Temperature Dewpoint
7°C / 45°F 5°C / 41°F
Humidity Altimeter Pressure
87% 29.87" Hg 1012.1 hPa